createdAt,value
2023-02-06T16:53:34.748Z,0.05
2023-02-06T16:57:45.077Z,0.20
2023-02-06T17:02:31.016Z,0.33
2023-02-06T17:16:07.584Z,0.70
2023-02-06T17:20:38.915Z,0.80
2023-02-06T17:24:42.552Z,0.84
2023-02-06T17:28:46.460Z,0.86
2023-02-06T17:33:53.332Z,0.84
2023-02-06T17:37:56.419Z,0.84
2023-02-06T17:42:03.684Z,0.85
2023-02-06T17:46:07.535Z,0.85
2023-02-06T17:50:39.159Z,0.69
2023-02-06T17:54:42.915Z,0.51
2023-02-06T17:58:52.209Z,0.40
2023-02-06T18:02:58.110Z,0.33
2023-02-06T18:08:06.717Z,0.16
2023-02-06T18:12:09.907Z,0.11
2023-02-06T18:17:28.324Z,0.16
2023-02-06T18:21:36.869Z,0.19
2023-02-06T18:25:43.438Z,0.19
2023-02-06T18:29:50.224Z,0.16
2023-02-06T18:33:54.418Z,0.07
2023-02-06T18:37:57.473Z,0.03
2023-02-06T18:42:22.358Z,-0.02
2023-02-06T18:46:25.522Z,-0.00
2023-02-06T18:50:39.499Z,0.05
2023-02-06T18:54:42.715Z,0.05
2023-02-06T18:58:50.965Z,0.04
2023-02-06T19:02:54.679Z,0.06
2023-02-06T19:06:57.731Z,0.05
2023-02-06T19:11:00.738Z,0.02
2023-02-06T19:15:04.945Z,-0.03
2023-02-06T19:19:07.977Z,-0.10
2023-02-06T19:23:11.008Z,-0.14
2023-02-06T19:27:17.455Z,-0.13
2023-02-06T19:31:24.115Z,-0.16
2023-02-06T19:35:28.499Z,-0.18
2023-02-06T19:45:35.231Z,-0.29
2023-02-06T19:49:38.951Z,-0.40
2023-02-06T19:59:27.090Z,-0.56
2023-02-06T20:04:03.543Z,-0.53
2023-02-06T20:08:06.553Z,-0.55
2023-02-06T20:12:15.327Z,-0.57
2023-02-06T20:16:21.453Z,-0.60
2023-02-06T20:20:25.083Z,-0.61
2023-02-06T20:24:32.602Z,-0.60
2023-02-06T20:28:57.729Z,-0.64
2023-02-06T20:33:00.725Z,-0.69
2023-02-06T20:37:18.653Z,-0.72
2023-02-06T20:41:23.002Z,-0.81
2023-02-06T20:45:34.356Z,-0.94
2023-02-06T20:49:37.739Z,-1.08
2023-02-06T20:54:07.136Z,-1.18
2023-02-06T20:58:11.154Z,-1.23
2023-02-06T21:02:51.431Z,-1.22
2023-02-06T21:06:56.548Z,-1.19
2023-02-06T21:10:59.659Z,-1.24
2023-02-06T21:15:15.256Z,-1.30
2023-02-06T21:19:46.639Z,-1.36
2023-02-06T21:23:49.778Z,-1.60
2023-02-06T21:27:54.042Z,-1.72
2023-02-06T21:32:12.196Z,-1.72
2023-02-06T21:36:16.539Z,-1.67
2023-02-06T21:41:00.815Z,-1.58
2023-02-06T21:45:04.433Z,-1.53
2023-02-06T21:54:55.877Z,-1.81
2023-02-06T21:58:58.977Z,-1.82
2023-02-06T22:04:00.066Z,-1.73
2023-02-06T22:08:03.707Z,-1.69
2023-02-06T22:12:07.617Z,-1.69
2023-02-06T22:16:12.969Z,-1.72
2023-02-06T22:20:16.463Z,-1.90
2023-02-06T22:24:20.124Z,-2.04
2023-02-06T22:28:31.732Z,-2.04
2023-02-06T22:32:38.723Z,-2.01
2023-02-06T22:36:44.072Z,-1.97
2023-02-06T22:40:47.887Z,-1.91
2023-02-06T22:44:52.164Z,-1.83
2023-02-06T22:48:56.755Z,-1.80
2023-02-06T22:53:18.616Z,-1.75
2023-02-06T22:57:22.244Z,-1.73
2023-02-06T23:01:30.770Z,-1.76
2023-02-06T23:05:36.087Z,-1.80
2023-02-06T23:09:40.817Z,-1.94
2023-02-06T23:13:44.434Z,-2.25
2023-02-06T23:17:49.788Z,-2.34
2023-02-06T23:21:53.223Z,-2.33
2023-02-06T23:25:59.186Z,-2.26
2023-02-06T23:30:02.891Z,-2.20
2023-02-06T23:34:06.515Z,-2.09
2023-02-06T23:38:11.395Z,-1.99
2023-02-06T23:42:14.982Z,-1.99
2023-02-06T23:46:20.326Z,-2.02
2023-02-06T23:50:25.129Z,-1.97
2023-02-06T23:54:28.715Z,-1.97
2023-02-06T23:58:32.550Z,-2.04
